Time;durP1;ratioP1;P1;durP2;ratioP2;P2;SDS_P1;SDS_P2;PMS_P1;PMS_P2;Temp;Humidity;BMP_temperature;BMP_pressure;BME280_temperature;BME280_humidity;BME280_pressure;Samples;Min_cycle;Max_cycle;Signal;HPM_P1;HPM_P2
2022/05/03 00:02:21;;;;;;;;;35.75;32.50;;;;;13.25;54.09;101537.72;5087198;27;45296;-69
2022/05/03 00:05:07;;;;;;;;;42.50;36.75;;;;;13.15;54.29;101534.13;5086575;27;45432;-68
2022/05/03 00:08:09;;;;;;;;;44.00;35.75;;;;;13.21;54.42;101540.91;5096590;27;45551;-69
2022/05/03 00:11:00;;;;;;;;;41.00;33.50;;;;;13.22;54.29;101538.00;5092034;27;45443;-69
2022/05/03 00:13:52;;;;;;;;;33.00;31.00;;;;;13.15;54.35;101530.56;5089850;27;45388;-69
2022/05/03 00:16:20;;;;;;;;;44.00;37.75;;;;;13.20;54.02;101529.13;5092202;27;45525;-69
2022/05/03 00:18:46;;;;;;;;;48.25;37.25;;;;;13.22;54.27;101537.16;5085722;27;45408;-69
2022/05/03 00:21:12;;;;;;;;;43.50;34.50;;;;;13.18;54.20;101533.84;5091112;27;45669;-69
2022/05/03 00:23:38;;;;;;;;;44.50;36.50;;;;;13.19;54.18;101532.84;5093106;27;45380;-69
2022/05/03 00:26:04;;;;;;;;;35.00;30.50;;;;;13.07;54.58;101523.09;5089120;27;45441;-70
2022/05/03 00:28:30;;;;;;;;;37.75;33.75;;;;;13.09;54.46;101529.22;5103143;27;45363;-69
2022/05/03 00:30:55;;;;;;;;;40.75;35.00;;;;;13.07;54.28;101522.22;5093069;27;46250;-70
2022/05/03 00:33:22;;;;;;;;;39.75;35.00;;;;;13.16;54.09;101530.41;5086272;27;45497;-69
2022/05/03 00:35:49;;;;;;;;;34.75;32.75;;;;;13.01;54.26;101520.91;5090445;27;45336;-69
2022/05/03 00:38:14;;;;;;;;;42.25;35.75;;;;;13.11;54.06;101524.50;5091604;27;45380;-69
2022/05/03 00:40:47;;;;;;;;;44.50;36.25;;;;;13.17;54.00;101520.34;5091533;27;45674;-69
2022/05/03 00:43:30;;;;;;;;;40.25;33.50;;;;;13.22;53.71;101520.78;5094921;27;45448;-69
2022/05/03 00:46:07;;;;;;;;;32.75;30.25;;;;;13.16;53.47;101515.91;5091754;27;45342;-69
2022/05/03 00:48:47;;;;;;;;;37.50;34.00;;;;;13.24;53.88;101529.69;5102904;27;45360;-69
2022/05/03 00:51:16;;;;;;;;;43.50;37.00;;;;;13.15;53.92;101520.50;5094612;27;47006;-69
2022/05/03 00:54:13;;;;;;;;;46.00;35.00;;;;;13.06;54.37;101521.38;5088008;27;45363;-70
2022/05/03 00:56:56;;;;;;;;;52.50;36.75;;;;;12.97;54.16;101511.31;5099134;27;45313;-69
2022/05/03 00:59:43;;;;;;;;;38.25;33.00;;;;;12.93;54.34;101514.50;5088948;27;45314;-69
2022/05/03 01:02:08;;;;;;;;;41.75;35.00;;;;;12.95;54.46;101521.50;5089866;27;45278;-69
2022/05/03 01:05:10;;;;;;;;;37.25;31.75;;;;;12.91;54.62;101527.41;5090893;27;45326;-69
2022/05/03 01:07:46;;;;;;;;;30.25;28.50;;;;;12.86;54.24;101511.44;5088834;27;45321;-69
2022/05/03 01:10:25;;;;;;;;;35.75;33.25;;;;;12.77;54.74;101515.06;5091943;27;45392;-69
2022/05/03 01:13:01;;;;;;;;;37.50;33.00;;;;;12.83;54.63;101519.94;5089661;27;45706;-69
2022/05/03 01:15:44;;;;;;;;;39.50;33.75;;;;;12.85;54.26;101515.22;5093822;27;45437;-69
2022/05/03 01:18:29;;;;;;;;;41.75;33.50;;;;;12.75;54.72;101511.63;5089200;27;45152;-69
2022/05/03 01:21:17;;;;;;;;;38.00;30.50;;;;;12.71;54.83;101519.19;5091456;27;45931;-69
2022/05/03 01:24:14;;;;;;;;;37.00;33.75;;;;;12.74;54.93;101520.78;5094980;27;46574;-69
2022/05/03 01:27:07;;;;;;;;;38.00;31.75;;;;;12.68;54.66;101522.22;5096412;27;45324;-69
2022/05/03 01:29:34;;;;;;;;;44.25;37.75;;;;;12.38;55.54;101515.03;5101481;27;45420;-69
2022/05/03 01:32:06;;;;;;;;;45.00;35.25;;;;;12.41;55.97;101514.78;5097226;27;45350;-69
2022/05/03 01:34:33;;;;;;;;;39.00;32.00;;;;;12.41;55.63;101508.44;5102364;27;45625;-69
2022/05/03 01:37:20;;;;;;;;;36.75;32.75;;;;;12.36;55.76;101506.13;5096851;27;45316;-69
2022/05/03 01:40:11;;;;;;;;;39.50;35.75;;;;;12.26;56.39;101509.88;5098681;27;45345;-69
2022/05/03 01:42:45;;;;;;;;;44.25;36.50;;;;;12.16;56.55;101509.84;5094101;27;45443;-70
2022/05/03 01:45:11;;;;;;;;;41.75;34.25;;;;;12.09;56.47;101504.09;5090135;27;45465;-70
2022/05/03 01:48:14;;;;;;;;;32.75;28.50;;;;;12.11;56.43;101500.38;5092415;27;45392;-69
2022/05/03 01:50:58;;;;;;;;;34.25;31.75;;;;;12.14;56.14;101494.63;5088196;27;45716;-69
2022/05/03 01:53:36;;;;;;;;;39.25;31.00;;;;;12.08;56.48;101498.78;5085622;27;45342;-69
2022/05/03 01:56:26;;;;;;;;;38.50;34.00;;;;;12.04;56.86;101502.78;5087431;27;47874;-70
2022/05/03 01:59:24;;;;;;;;;46.25;37.00;;;;;12.01;56.88;101498.47;5101174;27;45782;-69
2022/05/03 02:02:08;;;;;;;;;35.00;32.25;;;;;12.14;56.20;101492.75;5093977;27;45293;-69
2022/05/03 02:05:06;;;;;;;;;43.25;35.75;;;;;12.07;56.46;101495.19;5090418;27;45174;-69
2022/05/03 02:07:53;;;;;;;;;37.75;33.50;;;;;11.99;56.87;101488.72;5086107;27;47718;-70
2022/05/03 02:10:28;;;;;;;;;39.00;35.25;;;;;11.86;57.13;101501.72;5086574;27;45493;-70
2022/05/03 02:13:03;;;;;;;;;42.50;35.00;;;;;11.86;57.25;101494.41;5084978;27;45342;-68
2022/05/03 02:15:43;;;;;;;;;37.00;33.00;;;;;11.89;56.99;101490.56;5088709;27;45307;-68
2022/05/03 02:18:51;;;;;;;;;37.00;33.00;;;;;11.89;57.24;101507.75;5087127;27;45333;-68
2022/05/03 02:21:29;;;;;;;;;33.25;31.25;;;;;11.87;57.14;101492.56;5073460;27;45443;-69
2022/05/03 02:24:08;;;;;;;;;48.25;35.75;;;;;11.74;57.44;101491.91;5092580;27;45258;-67
2022/05/03 02:27:02;;;;;;;;;49.50;36.00;;;;;11.81;57.42;101504.00;5094846;27;45325;-68
2022/05/03 02:29:37;;;;;;;;;39.25;35.75;;;;;11.57;57.75;101486.09;5099415;27;48148;-68
2022/05/03 02:32:04;;;;;;;;;40.50;36.50;;;;;11.69;58.06;101501.34;5095706;27;45486;-69
2022/05/03 02:34:49;;;;;;;;;39.75;35.00;;;;;11.73;57.73;101509.25;5087255;27;45529;-70
2022/05/03 02:37:23;;;;;;;;;43.75;36.50;;;;;11.59;57.99;101495.00;5094148;27;45362;-69
2022/05/03 02:40:09;;;;;;;;;38.50;31.00;;;;;11.70;58.07;101503.06;5086789;27;45496;-67
2022/05/03 02:42:36;;;;;;;;;45.25;37.75;;;;;11.78;57.83;101509.72;5092727;27;45297;-69
2022/05/03 02:45:03;;;;;;;;;38.75;35.25;;;;;11.80;57.39;101505.88;5087126;27;45500;-69
2022/05/03 02:47:31;;;;;;;;;33.75;31.00;;;;;11.81;57.25;101510.31;5091907;27;45467;-69
2022/05/03 02:50:08;;;;;;;;;42.00;36.00;;;;;11.82;57.50;101512.03;5087863;27;45225;-69
2022/05/03 02:52:43;;;;;;;;;44.75;38.50;;;;;11.86;57.23;101509.88;5098803;27;45324;-67
2022/05/03 02:55:22;;;;;;;;;35.50;32.75;;;;;11.78;57.05;101490.66;5097839;27;45465;-67
2022/05/03 02:58:03;;;;;;;;;40.25;34.00;;;;;11.90;56.87;101511.34;5095574;27;45424;-67
2022/05/03 03:03:54;;;;;;;;;42.75;34.75;;;;;11.81;57.10;101504.88;5083715;27;45372;-69
2022/05/03 03:06:22;;;;;;;;;42.25;37.00;;;;;11.85;57.27;101508.16;5096967;27;45342;-70
2022/05/03 03:08:51;;;;;;;;;39.75;36.25;;;;;11.86;57.14;101501.72;5091328;27;45313;-69
2022/05/03 03:11:28;;;;;;;;;42.75;35.75;;;;;11.93;56.08;101506.47;5095110;27;47084;-69
2022/05/03 03:14:08;;;;;;;;;42.75;36.75;;;;;11.80;56.96;101505.00;5084318;27;45215;-69
2022/05/03 03:16:39;;;;;;;;;51.50;40.00;;;;;11.78;57.25;101504.28;5093917;27;45266;-69
2022/05/03 03:19:28;;;;;;;;;36.25;32.75;;;;;11.84;57.07;101498.25;5092116;27;45247;-69
2022/05/03 03:21:55;;;;;;;;;43.75;36.00;;;;;11.93;56.81;101508.34;5099564;27;45432;-69
2022/05/03 03:24:22;;;;;;;;;38.25;35.00;;;;;11.90;57.04;101503.19;5100225;27;45711;-69
2022/05/03 03:26:50;;;;;;;;;49.50;39.25;;;;;11.74;57.10;101500.97;5097182;27;45431;-69
2022/05/03 03:29:18;;;;;;;;;44.25;36.25;;;;;11.89;56.99;101496.88;5100745;27;45558;-69
2022/05/03 03:31:46;;;;;;;;;45.25;37.75;;;;;11.94;56.96;101510.06;5093880;27;48328;-69
2022/05/03 03:34:13;;;;;;;;;53.25;40.00;;;;;11.89;57.10;101491.44;5087477;27;45246;-70
2022/05/03 03:36:41;;;;;;;;;43.25;37.25;;;;;11.96;56.85;101503.47;5094645;27;45180;-69
2022/05/03 03:39:06;;;;;;;;;43.50;35.75;;;;;12.06;56.31;101498.03;5100530;27;45605;-69
2022/05/03 03:41:32;;;;;;;;;47.75;39.25;;;;;12.03;56.66;101501.06;5092758;27;46039;-69
2022/05/03 03:43:57;;;;;;;;;41.00;36.50;;;;;12.06;56.34;101481.69;5099481;27;45278;-69
2022/05/03 03:46:23;;;;;;;;;46.25;38.25;;;;;11.95;56.59;101484.56;5087150;27;45358;-69
2022/05/03 03:48:48;;;;;;;;;49.00;38.75;;;;;11.96;56.71;101494.44;5101000;27;45329;-69
2022/05/03 03:51:15;;;;;;;;;59.50;48.50;;;;;12.05;56.64;101496.34;5089517;27;45427;-69
2022/05/03 03:53:41;;;;;;;;;45.75;36.75;;;;;11.94;56.79;101491.00;5099045;27;46348;-69
2022/05/03 03:56:07;;;;;;;;;47.25;37.50;;;;;11.81;56.90;101483.09;5091543;27;45423;-69
2022/05/03 03:58:34;;;;;;;;;43.25;38.25;;;;;11.85;56.98;101492.69;5083528;27;45513;-70
2022/05/03 04:00:59;;;;;;;;;46.00;38.50;;;;;11.89;56.62;101487.84;5094445;27;46623;-69
2022/05/03 04:03:26;;;;;;;;;54.00;41.25;;;;;11.96;56.64;101489.00;5082940;28;45325;-69
2022/05/03 04:05:52;;;;;;;;;44.75;38.00;;;;;11.79;56.83;101495.09;5096129;27;45425;-69
2022/05/03 04:08:17;;;;;;;;;42.75;37.75;;;;;11.82;56.81;101486.69;5096627;27;46283;-69
2022/05/03 04:10:43;;;;;;;;;40.75;33.00;;;;;11.86;56.91;101493.56;5092427;27;45501;-69
2022/05/03 04:13:13;;;;;;;;;49.75;38.25;;;;;11.91;56.46;101496.72;5083738;27;44817;-69
2022/05/03 04:15:39;;;;;;;;;52.00;39.00;;;;;11.87;56.92;101495.28;5092659;27;45333;-69
2022/05/03 04:18:07;;;;;;;;;49.00;38.25;;;;;11.85;56.85;101494.53;5089586;27;45299;-69
2022/05/03 04:20:34;;;;;;;;;47.75;38.50;;;;;11.77;57.09;101502.53;5092104;27;45716;-69
2022/05/03 04:22:59;;;;;;;;;48.25;37.50;;;;;11.70;57.04;101492.16;5098748;27;45492;-69
2022/05/03 04:25:25;;;;;;;;;52.75;41.00;;;;;11.67;57.59;101499.78;5093771;27;45432;-69
2022/05/03 04:27:50;;;;;;;;;53.00;40.50;;;;;11.52;57.46;101482.94;5105874;27;45462;-69
2022/05/03 04:30:16;;;;;;;;;40.00;35.00;;;;;11.63;57.41;101501.88;5099925;27;46386;-69
2022/05/03 04:32:41;;;;;;;;;44.25;35.75;;;;;11.63;56.97;101499.16;5095957;27;45226;-69
2022/05/03 04:35:07;;;;;;;;;49.00;38.50;;;;;11.65;57.59;101504.47;5091224;27;45616;-69
2022/05/03 04:37:32;;;;;;;;;43.25;36.25;;;;;11.66;56.73;101507.06;5096905;27;45490;-69
2022/05/03 04:39:57;;;;;;;;;52.25;40.00;;;;;11.62;57.53;101502.88;5093193;27;45595;-68
2022/05/03 04:42:23;;;;;;;;;49.00;40.25;;;;;11.43;58.08;101505.53;5102061;27;45875;-69
2022/05/03 04:44:48;;;;;;;;;51.75;40.00;;;;;11.39;58.60;101514.97;5088782;27;45514;-69
2022/05/03 04:47:14;;;;;;;;;44.00;38.25;;;;;11.43;58.28;101510.09;5092778;27;45398;-69
2022/05/03 04:49:39;;;;;;;;;48.50;38.50;;;;;11.40;58.40;101511.22;5092964;27;45554;-69
2022/05/03 04:52:05;;;;;;;;;54.25;40.25;;;;;11.40;58.29;101503.06;5091088;27;45158;-69
2022/05/03 04:54:30;;;;;;;;;50.50;38.25;;;;;11.40;58.47;101504.91;5088318;27;45437;-69
2022/05/03 04:57:06;;;;;;;;;50.75;40.50;;;;;11.45;58.48;101508.97;5094169;27;45272;-69
2022/05/03 04:59:32;;;;;;;;;54.75;42.00;;;;;11.46;58.60;101508.00;5090847;27;47388;-68
2022/05/03 05:01:57;;;;;;;;;58.25;41.75;;;;;11.41;58.47;101517.53;5094196;27;45340;-69
2022/05/03 05:04:24;;;;;;;;;53.00;39.50;;;;;11.41;58.69;101515.66;5089526;27;45762;-69
2022/05/03 05:06:49;;;;;;;;;50.75;40.50;;;;;11.35;59.01;101512.63;5096148;27;45405;-69
2022/05/03 05:09:14;;;;;;;;;39.25;31.00;;;;;11.26;58.99;101514.28;5087639;27;45438;-70
2022/05/03 05:11:40;;;;;;;;;51.00;43.00;;;;;11.23;59.32;101514.59;5091699;27;45302;-69
2022/05/03 05:14:05;;;;;;;;;52.25;41.00;;;;;11.40;59.11;101521.25;5086379;27;45302;-69
2022/05/03 05:16:31;;;;;;;;;51.00;38.75;;;;;11.45;58.92;101525.31;5096327;27;45277;-69
2022/05/03 05:18:56;;;;;;;;;49.25;37.25;;;;;11.50;58.51;101520.31;5087806;27;45828;-69
2022/05/03 05:21:22;;;;;;;;;39.25;34.00;;;;;11.47;58.51;101517.00;5088516;27;45408;-69
2022/05/03 05:23:47;;;;;;;;;37.75;35.75;;;;;11.59;58.51;101533.13;5084622;27;45242;-69
2022/05/03 05:26:13;;;;;;;;;41.25;36.00;;;;;11.71;58.02;101522.97;5088707;27;45339;-69
2022/05/03 05:28:38;;;;;;;;;51.00;39.50;;;;;11.74;57.82;101533.66;5094000;27;46900;-69
2022/05/03 05:31:04;;;;;;;;;46.25;36.25;;;;;11.61;58.19;101520.25;5089812;27;45290;-69
2022/05/03 05:33:29;;;;;;;;;46.75;38.75;;;;;11.78;57.83;101540.53;5096137;27;45210;-69
2022/05/03 05:35:56;;;;;;;;;51.50;38.75;;;;;11.94;57.31;101537.28;5092470;27;45366;-69
2022/05/03 05:38:21;;;;;;;;;53.75;40.50;;;;;12.03;57.26;101541.91;5086711;27;45476;-69
2022/05/03 05:40:47;;;;;;;;;44.00;36.00;;;;;12.12;56.98;101529.34;5088534;27;46400;-69
2022/05/03 05:43:14;;;;;;;;;51.25;41.00;;;;;12.09;57.04;101534.06;5085458;27;45562;-69
2022/05/03 05:45:40;;;;;;;;;52.75;41.25;;;;;11.88;57.67;101532.41;5088450;27;45444;-69
2022/05/03 05:48:06;;;;;;;;;55.25;46.00;;;;;11.88;57.62;101532.41;5090783;27;46134;-69
2022/05/03 05:50:31;;;;;;;;;51.50;40.50;;;;;11.97;57.70;101537.03;5087864;27;45884;-69
2022/05/03 05:55:42;;;;;;;;;54.00;40.75;;;;;12.09;57.40;101538.63;5093388;27;45435;-69
2022/05/03 05:58:08;;;;;;;;;50.50;41.50;;;;;11.92;57.60;101539.28;5089235;27;45408;-70
2022/05/03 06:00:34;;;;;;;;;52.00;40.00;;;;;11.95;57.67;101549.91;5087373;27;45410;-69
2022/05/03 06:02:59;;;;;;;;;45.50;39.00;;;;;12.00;57.73;101550.34;5081657;27;45475;-69
2022/05/03 06:05:25;;;;;;;;;50.25;38.50;;;;;12.13;57.57;101552.84;5087724;27;45344;-70
2022/05/03 06:07:50;;;;;;;;;49.75;37.25;;;;;12.14;57.19;101546.38;5083371;27;46400;-69
2022/05/03 06:10:16;;;;;;;;;55.00;42.00;;;;;12.20;57.25;101554.84;5088148;27;45373;-70
2022/05/03 06:12:42;;;;;;;;;54.25;42.25;;;;;12.22;56.35;101552.00;5088207;27;45370;-69
2022/05/03 06:15:08;;;;;;;;;53.25;43.25;;;;;12.27;56.79;101553.28;5091417;27;45346;-69
2022/05/03 06:17:34;;;;;;;;;52.25;42.00;;;;;12.44;56.11;101547.16;5094177;27;47918;-69
2022/05/03 06:20:00;;;;;;;;;51.50;41.00;;;;;12.24;56.50;101556.31;5088810;27;45443;-69
2022/05/03 06:22:26;;;;;;;;;44.75;39.25;;;;;12.32;56.50;101544.72;5095828;27;45336;-69
2022/05/03 06:24:52;;;;;;;;;53.00;35.75;;;;;12.38;56.31;101553.19;5086926;27;45480;-68
2022/05/03 06:27:17;;;;;;;;;45.00;38.25;;;;;12.38;56.15;101555.06;5099680;27;45600;-69
2022/05/03 06:29:42;;;;;;;;;52.75;40.25;;;;;12.48;55.86;101558.66;5097993;27;45362;-69
2022/05/03 06:32:10;;;;;;;;;49.25;36.50;;;;;12.55;55.90;101559.81;5097260;27;45139;-69
2022/05/03 06:34:37;;;;;;;;;52.50;40.25;;;;;12.61;55.60;101563.84;5086237;27;45420;-69
2022/05/03 06:37:03;;;;;;;;;51.50;40.50;;;;;12.59;55.65;101565.84;5094152;27;45587;-69
2022/05/03 06:39:29;;;;;;;;;49.75;37.75;;;;;12.59;55.52;101558.53;5084229;27;45516;-70
2022/05/03 06:41:55;;;;;;;;;51.75;40.00;;;;;12.71;55.18;101565.56;5086623;27;45350;-70
2022/05/03 06:44:20;;;;;;;;;48.50;39.50;;;;;12.82;55.17;101578.22;5086429;27;45427;-70
2022/05/03 06:46:45;;;;;;;;;52.75;40.75;;;;;12.83;54.76;101574.47;5090633;27;45538;-71
2022/05/03 06:49:11;;;;;;;;;58.50;44.75;;;;;12.81;55.16;101565.56;5084983;27;45353;-71
2022/05/03 06:51:37;;;;;;;;;54.00;44.00;;;;;12.70;55.25;101573.91;5090067;27;45738;-70
2022/05/03 06:54:03;;;;;;;;;48.00;39.25;;;;;12.48;55.88;101578.63;5084550;27;45718;-70
2022/05/03 06:56:33;;;;;;;;;49.00;39.25;;;;;12.57;55.92;101576.88;5095636;27;46200;-70
2022/05/03 06:58:58;;;;;;;;;47.50;39.00;;;;;12.50;55.90;101562.09;5082105;27;45647;-71
2022/05/03 07:01:23;;;;;;;;;52.25;44.00;;;;;12.66;55.43;101577.91;5094099;27;45382;-70
2022/05/03 07:03:49;;;;;;;;;50.50;39.25;;;;;12.72;55.45;101578.19;5083780;27;45564;-71
2022/05/03 07:06:20;;;;;;;;;50.75;42.00;;;;;12.84;55.03;101573.47;5093253;27;49357;-70
2022/05/03 07:08:45;;;;;;;;;50.25;41.00;;;;;12.80;55.39;101564.72;5082613;27;45363;-72
2022/05/03 07:11:10;;;;;;;;;50.75;41.50;;;;;12.92;54.91;101578.22;5092193;27;45395;-69
2022/05/03 07:13:36;;;;;;;;;52.75;41.00;;;;;12.97;54.77;101575.91;5083638;27;45373;-70
2022/05/03 07:23:59;;;;;;;;;52.75;41.50;;;;;13.07;54.91;101576.78;5050608;28;45302;-71
2022/05/03 07:26:24;;;;;;;;;48.50;37.25;;;;;13.20;54.87;101572.78;5054959;28;45221;-70
2022/05/03 07:28:50;;;;;;;;;42.75;37.25;;;;;13.35;54.22;101584.13;5041193;28;45166;-70
2022/05/03 07:31:16;;;;;;;;;52.50;42.00;;;;;13.34;53.60;101576.06;5012547;28;45264;-71
2022/05/03 07:33:42;;;;;;;;;43.25;35.50;;;;;13.32;53.76;101578.06;5030554;28;45521;-71
2022/05/03 07:36:07;;;;;;;;;49.50;39.00;;;;;13.46;53.75;101574.88;5029825;28;46720;-70
2022/05/03 07:38:32;;;;;;;;;51.75;40.25;;;;;13.53;53.43;101578.75;5030294;28;45343;-70
2022/05/03 07:40:58;;;;;;;;;49.75;39.00;;;;;13.44;53.44;101579.66;5027698;28;45458;-71
2022/05/03 07:43:24;;;;;;;;;47.75;37.50;;;;;13.68;53.29;101587.31;5012881;28;45478;-69
2022/05/03 07:45:49;;;;;;;;;48.75;38.50;;;;;13.90;52.45;101582.38;5027105;28;46281;-71
2022/05/03 07:48:15;;;;;;;;;45.00;38.25;;;;;13.81;52.61;101583.25;5010962;28;45508;-72
2022/05/03 07:50:40;;;;;;;;;47.50;38.75;;;;;14.03;52.07;101595.69;5012733;28;46227;-72
2022/05/03 07:53:06;;;;;;;;;41.00;36.50;;;;;14.22;52.14;101589.28;5039170;28;45369;-71
2022/05/03 07:55:31;;;;;;;;;48.00;39.00;;;;;14.50;51.55;101590.16;5027082;28;45726;-72
2022/05/03 07:57:57;;;;;;;;;52.25;39.00;;;;;14.60;50.92;101596.44;5027570;28;45240;-71
2022/05/03 08:00:22;;;;;;;;;50.00;40.25;;;;;14.87;50.00;101587.31;5028989;28;45441;-71
2022/05/03 08:02:47;;;;;;;;;41.00;37.25;;;;;15.13;49.81;101583.63;5028026;28;45359;-71
2022/05/03 08:05:13;;;;;;;;;42.75;31.50;;;;;15.77;48.75;101590.66;5008969;28;46881;-72
2022/05/03 08:07:38;;;;;;;;;37.00;34.00;;;;;15.77;47.50;101566.00;5028952;28;45232;-71
2022/05/03 08:10:04;;;;;;;;;49.75;37.25;;;;;16.30;47.06;101590.41;5010222;28;45423;-72
2022/05/03 08:12:30;;;;;;;;;41.50;36.00;;;;;16.44;46.98;101585.34;5014595;28;45234;-70
2022/05/03 08:14:56;;;;;;;;;26.00;26.00;;;;;16.43;46.76;101584.47;5024535;28;45420;-70
2022/05/03 08:17:24;;;;;;;;;39.00;33.25;;;;;16.78;45.85;101593.50;5030687;28;45126;-71
2022/05/03 08:19:49;;;;;;;;;38.00;33.25;;;;;17.08;45.79;101579.16;5007499;28;45780;-71
2022/05/03 08:22:15;;;;;;;;;40.75;33.00;;;;;17.47;44.94;101587.53;5030975;28;45480;-71
2022/05/03 08:24:40;;;;;;;;;41.50;33.50;;;;;17.45;43.99;101587.75;5005554;28;47047;-72
2022/05/03 08:27:06;;;;;;;;;37.50;31.25;;;;;17.22;44.83;101585.84;5036498;28;45430;-71
2022/05/03 08:29:31;;;;;;;;;41.00;33.75;;;;;17.26;44.54;101592.69;5038859;28;45311;-72
2022/05/03 08:31:58;;;;;;;;;39.25;35.00;;;;;17.40;44.94;101590.13;5030890;28;45576;-71
2022/05/03 08:34:24;;;;;;;;;38.25;35.00;;;;;17.57;42.79;101584.63;5024345;28;45260;-71
2022/05/03 08:42:18;;;;;;;;;40.25;33.00;;;;;17.58;42.83;101583.59;5023013;28;45225;-71
2022/05/03 08:44:43;;;;;;;;;28.75;25.00;;;;;18.23;41.51;101592.56;5026055;28;45398;-72
2022/05/03 08:47:09;;;;;;;;;41.00;34.75;;;;;18.55;40.50;101589.69;5033290;28;45311;-72
2022/05/03 08:49:52;;;;;;;;;32.25;29.00;;;;;18.90;40.29;101592.94;5027140;28;45414;-71
2022/05/03 08:52:21;;;;;;;;;33.25;31.50;;;;;18.82;40.08;101590.25;5017470;28;45544;-71
2022/05/03 08:54:47;;;;;;;;;27.50;24.75;;;;;19.11;38.86;101581.25;5033289;28;45283;-71
2022/05/03 08:57:13;;;;;;;;;34.25;28.75;;;;;19.17;38.29;101586.88;5010246;28;45430;-71
2022/05/03 08:59:38;;;;;;;;;39.75;33.25;;;;;18.99;39.67;101580.84;5024417;28;45251;-71
2022/05/03 09:02:04;;;;;;;;;33.00;28.75;;;;;18.88;39.15;101581.25;5025105;28;45333;-70
2022/05/03 09:04:30;;;;;;;;;37.75;31.00;;;;;18.65;39.79;101567.44;5041173;28;45390;-71
2022/05/03 09:06:56;;;;;;;;;34.00;30.50;;;;;19.34;40.43;101565.56;5035913;28;45280;-71
2022/05/03 09:09:21;;;;;;;;;36.75;32.00;;;;;19.67;38.36;101578.03;5027727;28;45390;-71
2022/05/03 09:11:57;;;;;;;;;35.25;33.25;;;;;18.85;39.37;101559.59;5022955;28;45263;-71
2022/05/03 09:14:36;;;;;;;;;32.75;30.75;;;;;18.90;40.08;101584.69;5027264;28;47050;-71
2022/05/03 09:17:05;;;;;;;;;30.00;28.50;;;;;19.52;39.06;101579.88;5012588;28;45384;-70
2022/05/03 09:19:30;;;;;;;;;32.50;30.00;;;;;19.84;38.44;101581.47;5009754;28;45596;-72
2022/05/03 09:24:58;;;;;;;;;32.00;30.00;;;;;19.98;38.15;101558.56;5028580;28;46061;-70
2022/05/03 09:27:25;;;;;;;;;37.50;33.50;;;;;19.82;38.92;101570.63;5017381;28;45366;-71
2022/05/03 09:30:04;;;;;;;;;31.00;30.00;;;;;20.42;38.14;101569.59;5043860;28;45423;-71
2022/05/03 09:32:38;;;;;;;;;27.25;27.00;;;;;20.53;36.27;101565.47;5027127;28;45663;-72
2022/05/03 09:35:05;;;;;;;;;23.75;22.25;;;;;20.71;36.49;101576.97;5026472;28;48255;-71
2022/05/03 09:37:41;;;;;;;;;24.00;23.50;;;;;21.27;34.76;101568.84;5044704;28;45251;-71
2022/05/03 09:40:08;;;;;;;;;25.25;23.25;;;;;21.15;34.97;101556.59;5044926;28;45353;-72
2022/05/03 09:42:40;;;;;;;;;23.00;23.00;;;;;21.47;34.25;101564.38;5045576;28;45351;-72
2022/05/03 09:45:08;;;;;;;;;21.75;21.75;;;;;20.85;34.84;101562.25;5026686;28;46349;-71
2022/05/03 09:47:56;;;;;;;;;23.00;22.25;;;;;21.26;34.04;101558.84;5026674;28;45330;-72
2022/05/03 09:50:33;;;;;;;;;25.50;24.00;;;;;21.18;34.30;101559.00;5026875;28;45393;-71
2022/05/03 09:53:09;;;;;;;;;28.67;25.33;;;;;21.72;33.91;101559.22;5027010;28;45378;-71
2022/05/03 09:55:39;;;;;;;;;25.00;24.00;;;;;21.56;33.45;101565.91;5044794;28;46448;-73
2022/05/03 09:58:06;;;;;;;;;20.00;18.50;;;;;21.38;33.68;101564.72;5044213;28;45328;-73
2022/05/03 10:00:36;;;;;;;;;23.25;21.00;;;;;21.37;32.87;101552.78;5044611;28;45303;-71
2022/05/03 10:03:06;;;;;;;;;25.00;20.67;;;;;21.49;33.19;101559.47;5026569;28;45587;-72
2022/05/03 10:05:33;;;;;;;;;21.33;20.00;;;;;22.10;32.46;101556.97;5044522;28;45430;-73
2022/05/03 10:07:59;;;;;;;;;22.00;21.33;;;;;22.63;31.68;101554.44;5044050;28;45768;-72
2022/05/03 10:10:26;;;;;;;;;28.00;23.67;;;;;22.71;31.63;101552.34;5044953;28;45113;-71
2022/05/03 10:12:56;;;;;;;;;22.33;19.33;;;;;22.44;31.46;101548.59;5043690;28;45590;-71
2022/05/03 10:21:03;;;;;;;;;27.00;25.67;;;;;22.13;31.72;101546.34;5045264;28;45421;-70
2022/05/03 10:23:34;;;;;;;;;23.50;22.25;;;;;22.12;31.79;101544.63;5008122;28;45312;-69
2022/05/03 10:26:10;;;;;;;;;23.67;22.33;;;;;22.00;32.33;101539.88;5024977;28;45413;-71
2022/05/03 10:28:57;;;;;;;;;20.67;16.33;;;;;22.15;32.15;101543.34;5043142;28;45440;-71
2022/05/03 10:31:23;;;;;;;;;21.67;18.67;;;;;22.67;30.84;101547.41;5044291;28;45252;-71
2022/05/03 10:33:48;;;;;;;;;18.00;17.67;;;;;23.06;30.54;101544.78;5044337;28;45164;-71
2022/05/03 10:36:32;;;;;;;;;22.00;20.33;;;;;22.51;30.84;101543.94;5025864;28;45979;-71
2022/05/03 10:39:16;;;;;;;;;22.33;21.00;;;;;22.67;31.46;101536.31;5043798;28;45275;-73
2022/05/03 10:42:13;;;;;;;;;23.67;20.33;;;;;23.16;30.98;101536.00;5026138;28;45269;-72
2022/05/03 10:44:40;;;;;;;;;18.00;16.67;;;;;23.40;30.56;101527.06;5010108;28;45475;-72
2022/05/03 10:47:06;;;;;;;;;20.33;17.33;;;;;23.41;29.99;101547.34;5042312;28;45438;-72
2022/05/03 10:49:31;;;;;;;;;22.33;21.00;;;;;22.83;30.46;101530.44;5043543;28;45232;-71
2022/05/03 10:51:56;;;;;;;;;24.75;23.75;;;;;22.77;31.09;101515.50;5043857;28;45737;-71
2022/05/03 10:54:22;;;;;;;;;18.00;13.67;;;;;23.00;31.02;101534.53;5044038;28;45498;-71
2022/05/03 10:57:00;;;;;;;;;20.00;18.00;;;;;22.94;30.84;101528.97;5043430;28;45435;-71
2022/05/03 10:59:48;;;;;;;;;25.33;23.33;;;;;22.88;31.47;101534.28;5025512;28;45299;-71
2022/05/03 11:02:13;;;;;;;;;18.67;16.67;;;;;22.99;31.00;101515.34;5044971;28;45310;-69
2022/05/03 11:05:14;;;;;;;;;15.33;15.33;;;;;23.91;30.39;101529.19;5045359;28;45513;-71
2022/05/03 11:07:39;;;;;;;;;15.00;14.33;;;;;23.61;29.91;101524.09;5025374;28;47672;-71
2022/05/03 11:10:39;;;;;;;;;16.33;16.33;;;;;24.15;29.58;101517.38;5025238;28;45415;-71
2022/05/03 11:13:25;;;;;;;;;19.00;17.67;;;;;23.68;30.02;101513.84;5043630;28;45402;-72
2022/05/03 11:16:26;;;;;;;;;14.33;13.33;;;;;23.15;30.60;101518.56;5043687;28;45685;-72
2022/05/03 11:18:53;;;;;;;;;13.00;13.00;;;;;23.39;30.93;101505.09;5024659;28;47607;-72
2022/05/03 11:21:19;;;;;;;;;13.33;12.33;;;;;23.44;30.56;101508.09;5038931;28;45422;-72
2022/05/03 11:23:53;;;;;;;;;16.33;13.00;;;;;23.75;29.83;101515.75;5023361;28;45260;-71
2022/05/03 11:26:20;;;;;;;;;21.67;19.00;;;;;23.60;29.20;101499.34;5005655;28;45496;-71
2022/05/03 11:28:49;;;;;;;;;15.33;13.67;;;;;23.76;30.24;101511.91;5042990;28;46098;-73
2022/05/03 11:31:20;;;;;;;;;24.00;19.67;;;;;24.07;28.66;101503.72;5024982;28;45374;-72
2022/05/03 11:34:06;;;;;;;;;10.67;7.33;;;;;23.98;28.93;101496.69;5043245;28;45322;-72
2022/05/03 11:36:32;;;;;;;;;16.00;14.67;;;;;23.79;29.27;101504.03;5043663;28;45248;-72
2022/05/03 11:38:59;;;;;;;;;10.67;8.33;;;;;23.62;29.31;101500.00;5042905;28;45365;-72
2022/05/03 11:41:27;;;;;;;;;19.00;19.00;;;;;23.32;29.53;101498.69;5024903;28;45310;-71
2022/05/03 11:43:53;;;;;;;;;18.33;17.67;;;;;22.87;30.26;101496.53;5043228;28;45472;-71
2022/05/03 11:46:21;;;;;;;;;12.33;12.33;;;;;22.79;31.09;101490.38;5043378;28;45223;-71
2022/05/03 11:48:56;;;;;;;;;13.33;12.00;;;;;23.90;29.70;101489.47;5024489;28;47955;-71
2022/05/03 11:57:05;;;;;;;;;11.67;11.67;;;;;24.25;28.60;101503.06;5043020;28;45330;-72
2022/05/03 11:59:31;;;;;;;;;8.33;8.33;;;;;24.14;27.93;101489.81;5042745;28;45326;-72
2022/05/03 12:02:17;;;;;;;;;13.33;13.00;;;;;23.87;28.16;101491.84;5024532;28;45410;-73